sensor_id;sensor_type;location;lat;lon;timestamp;pressure;altitude;pressure_sealevel;temperature;humidity
60719;BME280;46567;51.660;5.824;2023-02-14T00:02:59;103400.0;;;4.5;84.0
60719;BME280;46567;51.660;5.824;2023-02-14T00:07:59;103410.0;;;4.5;84.5
60719;BME280;46567;51.660;5.824;2023-02-14T00:12:59;103410.0;;;4.5;84.5
60719;BME280;46567;51.660;5.824;2023-02-14T00:17:59;103400.0;;;4.4;84.5
60719;BME280;46567;51.660;5.824;2023-02-14T00:22:59;103390.0;;;4.4;85.0
60719;BME280;46567;51.660;5.824;2023-02-14T00:27:59;103390.0;;;4.4;85.0
60719;BME280;46567;51.660;5.824;2023-02-14T00:32:59;103390.0;;;4.4;85.0
60719;BME280;46567;51.660;5.824;2023-02-14T00:37:59;103380.0;;;4.3;85.0
60719;BME280;46567;51.660;5.824;2023-02-14T00:42:59;103380.0;;;4.3;85.0
60719;BME280;46567;51.660;5.824;2023-02-14T00:47:59;103380.0;;;4.2;85.0
60719;BME280;46567;51.660;5.824;2023-02-14T00:52:59;103380.0;;;4.2;85.0
60719;BME280;46567;51.660;5.824;2023-02-14T00:57:59;103380.0;;;4.1;85.0
60719;BME280;46567;51.660;5.824;2023-02-14T01:02:59;103390.0;;;4.0;85.0
60719;BME280;46567;51.660;5.824;2023-02-14T01:07:59;103400.0;;;4.0;85.0
60719;BME280;46567;51.660;5.824;2023-02-14T01:12:59;103390.0;;;4.0;85.5
60719;BME280;46567;51.660;5.824;2023-02-14T01:17:59;103400.0;;;3.9;85.5
60719;BME280;46567;51.660;5.824;2023-02-14T01:22:59;103390.0;;;3.8;85.5
60719;BME280;46567;51.660;5.824;2023-02-14T01:27:59;103390.0;;;3.8;86.0
60719;BME280;46567;51.660;5.824;2023-02-14T01:32:59;103390.0;;;3.7;86.0
60719;BME280;46567;51.660;5.824;2023-02-14T01:37:59;103390.0;;;3.6;85.5
60719;BME280;46567;51.660;5.824;2023-02-14T01:42:59;103400.0;;;3.6;86.0
60719;BME280;46567;51.660;5.824;2023-02-14T01:47:59;103390.0;;;3.6;86.0
60719;BME280;46567;51.660;5.824;2023-02-14T01:58:10;103380.0;;;3.5;86.0
60719;BME280;46567;51.660;5.824;2023-02-14T02:03:00;103380.0;;;3.5;86.0
60719;BME280;46567;51.660;5.824;2023-02-14T02:07:59;103380.0;;;3.6;86.0
60719;BME280;46567;51.660;5.824;2023-02-14T02:13:07;103380.0;;;3.6;85.5
60719;BME280;46567;51.660;5.824;2023-02-14T02:18:48;103370.0;;;3.6;86.0
60719;BME280;46567;51.660;5.824;2023-02-14T02:26:39;103360.0;;;3.6;86.0
60719;BME280;46567;51.660;5.824;2023-02-14T02:35:26;103360.0;;;3.6;86.0
60719;BME280;46567;51.660;5.824;2023-02-14T02:40:43;103360.0;;;3.5;86.5
60719;BME280;46567;51.660;5.824;2023-02-14T02:46:32;103360.0;;;3.5;86.5
60719;BME280;46567;51.660;5.824;2023-02-14T02:50:39;103360.0;;;3.5;86.0
60719;BME280;46567;51.660;5.824;2023-02-14T02:54:48;103360.0;;;3.4;86.0
60719;BME280;46567;51.660;5.824;2023-02-14T02:57:55;103350.0;;;3.3;86.5
60719;BME280;46567;51.660;5.824;2023-02-14T02:58:09;103350.0;;;3.3;86.0
60719;BME280;46567;51.660;5.824;2023-02-14T03:02:59;103360.0;;;3.2;86.0
60719;BME280;46567;51.660;5.824;2023-02-14T03:07:59;103360.0;;;3.3;86.5
60719;BME280;46567;51.660;5.824;2023-02-14T03:14:12;103360.0;;;3.3;87.0
60719;BME280;46567;51.660;5.824;2023-02-14T03:18:43;103370.0;;;3.3;86.5
60719;BME280;46567;51.660;5.824;2023-02-14T03:23:31;103360.0;;;3.4;86.5
60719;BME280;46567;51.660;5.824;2023-02-14T03:28:10;103370.0;;;3.4;86.5
60719;BME280;46567;51.660;5.824;2023-02-14T03:33:14;103360.0;;;3.4;86.5
60719;BME280;46567;51.660;5.824;2023-02-14T03:38:03;103360.0;;;3.5;86.5
60719;BME280;46567;51.660;5.824;2023-02-14T03:43:03;103360.0;;;3.5;86.5
60719;BME280;46567;51.660;5.824;2023-02-14T03:48:02;103350.0;;;3.5;86.5
60719;BME280;46567;51.660;5.824;2023-02-14T03:53:00;103360.0;;;3.5;87.0
60719;BME280;46567;51.660;5.824;2023-02-14T03:58:18;103360.0;;;3.5;87.0
60719;BME280;46567;51.660;5.824;2023-02-14T04:03:05;103350.0;;;3.5;87.0
60719;BME280;46567;51.660;5.824;2023-02-14T04:07:59;103360.0;;;3.5;86.5
60719;BME280;46567;51.660;5.824;2023-02-14T04:12:59;103360.0;;;3.5;87.0
60719;BME280;46567;51.660;5.824;2023-02-14T04:17:59;103350.0;;;3.5;87.0
60719;BME280;46567;51.660;5.824;2023-02-14T04:22:59;103360.0;;;3.5;86.5
60719;BME280;46567;51.660;5.824;2023-02-14T04:27:59;103360.0;;;3.5;87.0
60719;BME280;46567;51.660;5.824;2023-02-14T04:32:59;103370.0;;;3.4;87.0
60719;BME280;46567;51.660;5.824;2023-02-14T04:37:59;103360.0;;;3.4;87.0
60719;BME280;46567;51.660;5.824;2023-02-14T04:42:59;103360.0;;;3.3;87.0
60719;BME280;46567;51.660;5.824;2023-02-14T04:47:59;103350.0;;;3.1;86.5
60719;BME280;46567;51.660;5.824;2023-02-14T04:57:59;103340.0;;;2.9;87.0
60719;BME280;46567;51.660;5.824;2023-02-14T05:02:59;103340.0;;;2.8;87.0
60719;BME280;46567;51.660;5.824;2023-02-14T05:07:59;103330.0;;;2.8;87.5
60719;BME280;46567;51.660;5.824;2023-02-14T05:12:59;103320.0;;;2.7;88.0
60719;BME280;46567;51.660;5.824;2023-02-14T05:17:59;103330.0;;;2.7;87.5
60719;BME280;46567;51.660;5.824;2023-02-14T05:22:59;103320.0;;;2.7;88.0
60719;BME280;46567;51.660;5.824;2023-02-14T05:27:59;103330.0;;;2.6;88.0
60719;BME280;46567;51.660;5.824;2023-02-14T05:32:59;103330.0;;;2.6;88.0
60719;BME280;46567;51.660;5.824;2023-02-14T05:37:59;103330.0;;;2.7;88.0
60719;BME280;46567;51.660;5.824;2023-02-14T05:42:59;103320.0;;;2.7;88.0
60719;BME280;46567;51.660;5.824;2023-02-14T05:47:59;103330.0;;;2.7;88.0
60719;BME280;46567;51.660;5.824;2023-02-14T05:52:59;103330.0;;;2.6;88.0
60719;BME280;46567;51.660;5.824;2023-02-14T05:57:59;103330.0;;;2.6;88.5
60719;BME280;46567;51.660;5.824;2023-02-14T06:02:59;103330.0;;;2.5;88.5
60719;BME280;46567;51.660;5.824;2023-02-14T06:07:59;103330.0;;;2.5;88.5
60719;BME280;46567;51.660;5.824;2023-02-14T06:12:59;103330.0;;;2.5;88.5
60719;BME280;46567;51.660;5.824;2023-02-14T06:17:59;103330.0;;;2.6;88.5
60719;BME280;46567;51.660;5.824;2023-02-14T06:23:00;103340.0;;;2.6;89.0
60719;BME280;46567;51.660;5.824;2023-02-14T06:27:59;103330.0;;;2.6;88.0
60719;BME280;46567;51.660;5.824;2023-02-14T06:32:59;103340.0;;;2.6;88.0
60719;BME280;46567;51.660;5.824;2023-02-14T06:37:59;103340.0;;;2.6;88.5
60719;BME280;46567;51.660;5.824;2023-02-14T06:42:59;103340.0;;;2.6;88.0
60719;BME280;46567;51.660;5.824;2023-02-14T06:47:59;103340.0;;;2.6;88.5
60719;BME280;46567;51.660;5.824;2023-02-14T06:52:59;103350.0;;;2.5;88.0
60719;BME280;46567;51.660;5.824;2023-02-14T06:57:59;103350.0;;;2.5;88.0
60719;BME280;46567;51.660;5.824;2023-02-14T07:02:59;103350.0;;;2.5;88.0
60719;BME280;46567;51.660;5.824;2023-02-14T07:07:59;103360.0;;;2.4;88.0
60719;BME280;46567;51.660;5.824;2023-02-14T07:12:59;103360.0;;;2.4;88.0
60719;BME280;46567;51.660;5.824;2023-02-14T07:17:59;103350.0;;;2.4;88.0
60719;BME280;46567;51.660;5.824;2023-02-14T07:27:59;103370.0;;;2.4;88.0
60719;BME280;46567;51.660;5.824;2023-02-14T07:32:59;103360.0;;;2.5;88.0
60719;BME280;46567;51.660;5.824;2023-02-14T07:37:59;103360.0;;;2.4;88.0
60719;BME280;46567;51.660;5.824;2023-02-14T07:42:59;103370.0;;;2.5;88.5
60719;BME280;46567;51.660;5.824;2023-02-14T07:47:59;103370.0;;;2.5;88.5
60719;BME280;46567;51.660;5.824;2023-02-14T07:52:59;103370.0;;;2.6;88.0
60719;BME280;46567;51.660;5.824;2023-02-14T07:57:59;103370.0;;;2.6;88.0
60719;BME280;46567;51.660;5.824;2023-02-14T08:02:59;103370.0;;;2.6;89.0
60719;BME280;46567;51.660;5.824;2023-02-14T08:07:59;103370.0;;;2.6;89.0
60719;BME280;46567;51.660;5.824;2023-02-14T08:12:59;103360.0;;;2.7;89.5
60719;BME280;46567;51.660;5.824;2023-02-14T08:17:59;103360.0;;;2.7;89.5
60719;BME280;46567;51.660;5.824;2023-02-14T08:22:59;103360.0;;;2.8;90.0
60719;BME280;46567;51.660;5.824;2023-02-14T08:28:00;103360.0;;;2.9;90.5
60719;BME280;46567;51.660;5.824;2023-02-14T08:32:59;103360.0;;;3.0;91.0
60719;BME280;46567;51.660;5.824;2023-02-14T08:37:59;103360.0;;;3.2;91.0
60719;BME280;46567;51.660;5.824;2023-02-14T08:42:59;103360.0;;;3.4;91.0
60719;BME280;46567;51.660;5.824;2023-02-14T08:48:00;103350.0;;;3.6;91.0
60719;BME280;46567;51.660;5.824;2023-02-14T08:52:59;103350.0;;;3.9;91.0
60719;BME280;46567;51.660;5.824;2023-02-14T08:57:59;103350.0;;;4.1;91.0
60719;BME280;46567;51.660;5.824;2023-02-14T09:02:59;103340.0;;;4.4;91.5
60719;BME280;46567;51.660;5.824;2023-02-14T09:08:00;103350.0;;;4.7;91.5
60719;BME280;46567;51.660;5.824;2023-02-14T09:12:59;103340.0;;;5.0;92.5
60719;BME280;46567;51.660;5.824;2023-02-14T09:17:59;103330.0;;;5.3;92.0
60719;BME280;46567;51.660;5.824;2023-02-14T09:22:59;103330.0;;;5.6;92.0
60719;BME280;46567;51.660;5.824;2023-02-14T09:27:59;103330.0;;;5.9;92.0
60719;BME280;46567;51.660;5.824;2023-02-14T09:32:59;103320.0;;;6.2;91.5
60719;BME280;46567;51.660;5.824;2023-02-14T09:37:59;103320.0;;;6.5;91.5
60719;BME280;46567;51.660;5.824;2023-02-14T09:43:02;103320.0;;;6.8;91.0
60719;BME280;46567;51.660;5.824;2023-02-14T09:48:01;103330.0;;;7.0;91.0
60719;BME280;46567;51.660;5.824;2023-02-14T09:53:01;103330.0;;;7.3;90.5
60719;BME280;46567;51.660;5.824;2023-02-14T09:58:04;103320.0;;;7.5;90.0
60719;BME280;46567;51.660;5.824;2023-02-14T10:03:08;103310.0;;;7.8;90.0
60719;BME280;46567;51.660;5.824;2023-02-14T10:08:23;103300.0;;;8.1;89.5
60719;BME280;46567;51.660;5.824;2023-02-14T10:13:04;103300.0;;;8.3;89.0
60719;BME280;46567;51.660;5.824;2023-02-14T10:18:04;103300.0;;;8.6;88.5
60719;BME280;46567;51.660;5.824;2023-02-14T10:23:28;103300.0;;;8.8;87.5
60719;BME280;46567;51.660;5.824;2023-02-14T10:28:01;103300.0;;;9.0;87.5
60719;BME280;46567;51.660;5.824;2023-02-14T10:33:16;103300.0;;;9.2;87.5
60719;BME280;46567;51.660;5.824;2023-02-14T10:38:22;103310.0;;;9.5;86.5
60719;BME280;46567;51.660;5.824;2023-02-14T10:44:29;103300.0;;;9.7;85.5
60719;BME280;46567;51.660;5.824;2023-02-14T10:49:36;103290.0;;;9.9;85.5
60719;BME280;46567;51.660;5.824;2023-02-14T10:54:24;103290.0;;;10.1;84.0
60719;BME280;46567;51.660;5.824;2023-02-14T10:58:02;103280.0;;;10.2;84.5
60719;BME280;46567;51.660;5.824;2023-02-14T11:03:02;103280.0;;;10.5;83.5
60719;BME280;46567;51.660;5.824;2023-02-14T11:07:59;103270.0;;;10.8;84.0
60719;BME280;46567;51.660;5.824;2023-02-14T11:12:59;103270.0;;;11.0;82.0
60719;BME280;46567;51.660;5.824;2023-02-14T11:18:16;103260.0;;;11.1;81.5
60719;BME280;46567;51.660;5.824;2023-02-14T11:22:59;103250.0;;;11.3;80.5
60719;BME280;46567;51.660;5.824;2023-02-14T11:28:02;103240.0;;;11.5;80.0
60719;BME280;46567;51.660;5.824;2023-02-14T11:32:59;103240.0;;;11.7;79.5
60719;BME280;46567;51.660;5.824;2023-02-14T11:38:00;103250.0;;;11.9;80.0
60719;BME280;46567;51.660;5.824;2023-02-14T11:43:01;103240.0;;;12.2;78.5
60719;BME280;46567;51.660;5.824;2023-02-14T11:48:17;103240.0;;;12.3;79.0
60719;BME280;46567;51.660;5.824;2023-02-14T11:52:59;103220.0;;;12.5;78.0
60719;BME280;46567;51.660;5.824;2023-02-14T11:58:00;103220.0;;;12.7;76.5
60719;BME280;46567;51.660;5.824;2023-02-14T12:03:00;103210.0;;;12.8;76.0
60719;BME280;46567;51.660;5.824;2023-02-14T12:08:01;103200.0;;;12.9;75.5
60719;BME280;46567;51.660;5.824;2023-02-14T12:13:20;103200.0;;;13.0;74.0
60719;BME280;46567;51.660;5.824;2023-02-14T12:18:16;103180.0;;;13.0;73.5
60719;BME280;46567;51.660;5.824;2023-02-14T12:23:06;103170.0;;;13.2;74.0
60719;BME280;46567;51.660;5.824;2023-02-14T12:28:23;103160.0;;;13.4;73.5
60719;BME280;46567;51.660;5.824;2023-02-14T12:38:18;103150.0;;;13.7;72.5
60719;BME280;46567;51.660;5.824;2023-02-14T12:43:45;103150.0;;;13.9;70.0
60719;BME280;46567;51.660;5.824;2023-02-14T12:49:27;103150.0;;;13.9;68.5
60719;BME280;46567;51.660;5.824;2023-02-14T12:55:17;103130.0;;;13.9;68.5
60719;BME280;46567;51.660;5.824;2023-02-14T13:01:22;103130.0;;;14.1;69.5
60719;BME280;46567;51.660;5.824;2023-02-14T13:07:00;103120.0;;;14.3;68.5
60719;BME280;46567;51.660;5.824;2023-02-14T13:12:37;103120.0;;;14.4;66.5
60719;BME280;46567;51.660;5.824;2023-02-14T13:17:38;103110.0;;;14.3;65.5
60719;BME280;46567;51.660;5.824;2023-02-14T13:21:49;103100.0;;;14.4;67.0
60719;BME280;46567;51.660;5.824;2023-02-14T13:23:02;103100.0;;;14.5;66.0
60719;BME280;46567;51.660;5.824;2023-02-14T13:33:05;103080.0;;;14.8;66.5
60719;BME280;46567;51.660;5.824;2023-02-14T13:38:05;103080.0;;;14.9;64.5
60719;BME280;46567;51.660;5.824;2023-02-14T13:43:01;103080.0;;;15.0;65.0
60719;BME280;46567;51.660;5.824;2023-02-14T13:48:02;103080.0;;;15.0;64.5
60719;BME280;46567;51.660;5.824;2023-02-14T13:52:59;103060.0;;;15.0;64.0
60719;BME280;46567;51.660;5.824;2023-02-14T13:58:06;103060.0;;;15.1;63.5
60719;BME280;46567;51.660;5.824;2023-02-14T14:02:59;103060.0;;;15.1;62.5
60719;BME280;46567;51.660;5.824;2023-02-14T14:08:15;103050.0;;;15.1;63.5
60719;BME280;46567;51.660;5.824;2023-02-14T14:12:59;103050.0;;;15.2;62.5
60719;BME280;46567;51.660;5.824;2023-02-14T14:18:42;103050.0;;;15.2;63.5
60719;BME280;46567;51.660;5.824;2023-02-14T14:22:59;103040.0;;;15.3;62.0
60719;BME280;46567;51.660;5.824;2023-02-14T14:27:59;103040.0;;;15.3;61.5
60719;BME280;46567;51.660;5.824;2023-02-14T14:33:14;103040.0;;;15.3;60.5
60719;BME280;46567;51.660;5.824;2023-02-14T14:38:00;103040.0;;;15.2;60.5
60719;BME280;46567;51.660;5.824;2023-02-14T14:43:04;103030.0;;;15.1;61.5
60719;BME280;46567;51.660;5.824;2023-02-14T14:48:07;103030.0;;;15.1;62.0
60719;BME280;46567;51.660;5.824;2023-02-14T14:53:03;103030.0;;;15.1;62.5
60719;BME280;46567;51.660;5.824;2023-02-14T14:58:04;103020.0;;;15.1;63.0
60719;BME280;46567;51.660;5.824;2023-02-14T15:03:01;103020.0;;;15.2;63.0
60719;BME280;46567;51.660;5.824;2023-02-14T15:08:12;103010.0;;;15.2;63.5
60719;BME280;46567;51.660;5.824;2023-02-14T15:12:59;103010.0;;;15.3;63.5
60719;BME280;46567;51.660;5.824;2023-02-14T15:18:02;103010.0;;;15.2;63.5
60719;BME280;46567;51.660;5.824;2023-02-14T15:23:00;103020.0;;;15.2;63.5
60719;BME280;46567;51.660;5.824;2023-02-14T15:28:00;103010.0;;;15.1;63.5
60719;BME280;46567;51.660;5.824;2023-02-14T15:33:00;103020.0;;;15.1;63.5
60719;BME280;46567;51.660;5.824;2023-02-14T15:38:02;103010.0;;;14.9;64.0
60719;BME280;46567;51.660;5.824;2023-02-14T15:43:11;103020.0;;;14.8;64.0
60719;BME280;46567;51.660;5.824;2023-02-14T15:48:04;103010.0;;;14.7;64.5
60719;BME280;46567;51.660;5.824;2023-02-14T15:53:05;103010.0;;;14.6;64.5
60719;BME280;46567;51.660;5.824;2023-02-14T15:58:01;103000.0;;;14.5;65.0
60719;BME280;46567;51.660;5.824;2023-02-14T16:03:01;103000.0;;;14.3;65.5
60719;BME280;46567;51.660;5.824;2023-02-14T16:08:01;103000.0;;;14.2;65.5
60719;BME280;46567;51.660;5.824;2023-02-14T16:13:01;103000.0;;;14.0;65.5
60719;BME280;46567;51.660;5.824;2023-02-14T16:18:00;103000.0;;;13.9;65.5
60719;BME280;46567;51.660;5.824;2023-02-14T16:23:14;103010.0;;;13.8;66.0
60719;BME280;46567;51.660;5.824;2023-02-14T16:27:59;103000.0;;;13.6;66.0
60719;BME280;46567;51.660;5.824;2023-02-14T16:32:59;103000.0;;;13.5;66.0
60719;BME280;46567;51.660;5.824;2023-02-14T16:37:59;103000.0;;;13.3;66.5
60719;BME280;46567;51.660;5.824;2023-02-14T16:42:59;103000.0;;;13.1;66.5
60719;BME280;46567;51.660;5.824;2023-02-14T16:47:59;103000.0;;;12.9;66.5
60719;BME280;46567;51.660;5.824;2023-02-14T16:52:59;103010.0;;;12.7;67.0
60719;BME280;46567;51.660;5.824;2023-02-14T16:58:01;103000.0;;;12.5;67.0
60719;BME280;46567;51.660;5.824;2023-02-14T17:02:59;103000.0;;;12.2;67.5
60719;BME280;46567;51.660;5.824;2023-02-14T17:08:01;103010.0;;;12.0;68.5
60719;BME280;46567;51.660;5.824;2023-02-14T17:13:00;103010.0;;;11.9;68.5
60719;BME280;46567;51.660;5.824;2023-02-14T17:18:02;103010.0;;;11.7;69.0
60719;BME280;46567;51.660;5.824;2023-02-14T17:22:59;103020.0;;;11.6;69.0
60719;BME280;46567;51.660;5.824;2023-02-14T17:27:59;103020.0;;;11.4;69.5
60719;BME280;46567;51.660;5.824;2023-02-14T17:32:59;103020.0;;;11.2;69.5
60719;BME280;46567;51.660;5.824;2023-02-14T17:37:59;103020.0;;;11.0;70.0
60719;BME280;46567;51.660;5.824;2023-02-14T17:42:59;103020.0;;;10.8;70.0
60719;BME280;46567;51.660;5.824;2023-02-14T17:47:59;103030.0;;;10.6;70.5
60719;BME280;46567;51.660;5.824;2023-02-14T17:52:59;103030.0;;;10.5;71.0
60719;BME280;46567;51.660;5.824;2023-02-14T17:57:59;103030.0;;;10.3;71.0
60719;BME280;46567;51.660;5.824;2023-02-14T18:02:59;103030.0;;;10.2;71.5
60719;BME280;46567;51.660;5.824;2023-02-14T18:07:59;103030.0;;;10.1;72.0
60719;BME280;46567;51.660;5.824;2023-02-14T18:12:59;103020.0;;;9.9;72.0
60719;BME280;46567;51.660;5.824;2023-02-14T18:17:59;103010.0;;;9.8;72.0
60719;BME280;46567;51.660;5.824;2023-02-14T18:22:59;103010.0;;;9.6;72.5
60719;BME280;46567;51.660;5.824;2023-02-14T18:28:01;103010.0;;;9.4;72.5
60719;BME280;46567;51.660;5.824;2023-02-14T18:33:01;103010.0;;;9.2;73.0
60719;BME280;46567;51.660;5.824;2023-02-14T18:38:01;103010.0;;;9.0;73.0
60719;BME280;46567;51.660;5.824;2023-02-14T18:43:01;103010.0;;;8.9;73.5
60719;BME280;46567;51.660;5.824;2023-02-14T18:48:01;103000.0;;;8.8;73.5
60719;BME280;46567;51.660;5.824;2023-02-14T18:53:01;103000.0;;;8.6;74.0
60719;BME280;46567;51.660;5.824;2023-02-14T18:58:01;103000.0;;;8.5;74.5
60719;BME280;46567;51.660;5.824;2023-02-14T19:03:01;102990.0;;;8.4;74.0
60719;BME280;46567;51.660;5.824;2023-02-14T19:08:01;102980.0;;;8.1;74.0
60719;BME280;46567;51.660;5.824;2023-02-14T19:13:01;102970.0;;;7.7;74.5
60719;BME280;46567;51.660;5.824;2023-02-14T19:18:01;102960.0;;;7.6;75.0
60719;BME280;46567;51.660;5.824;2023-02-14T19:23:01;102970.0;;;7.5;75.5
60719;BME280;46567;51.660;5.824;2023-02-14T19:28:01;102970.0;;;7.4;75.5
60719;BME280;46567;51.660;5.824;2023-02-14T19:33:01;102970.0;;;7.3;75.5
60719;BME280;46567;51.660;5.824;2023-02-14T19:38:01;102960.0;;;7.1;75.5
60719;BME280;46567;51.660;5.824;2023-02-14T19:43:01;102960.0;;;6.9;76.5
60719;BME280;46567;51.660;5.824;2023-02-14T19:48:01;102960.0;;;6.8;76.5
60719;BME280;46567;51.660;5.824;2023-02-14T19:53:01;102950.0;;;6.8;76.5
60719;BME280;46567;51.660;5.824;2023-02-14T19:58:01;102950.0;;;6.7;76.5
60719;BME280;46567;51.660;5.824;2023-02-14T20:03:01;102950.0;;;6.7;76.5
60719;BME280;46567;51.660;5.824;2023-02-14T20:08:01;102950.0;;;6.6;76.5
60719;BME280;46567;51.660;5.824;2023-02-14T20:13:01;102940.0;;;6.4;76.5
60719;BME280;46567;51.660;5.824;2023-02-14T20:18:01;102940.0;;;6.2;77.0
60719;BME280;46567;51.660;5.824;2023-02-14T20:23:01;102940.0;;;6.1;77.5
60719;BME280;46567;51.660;5.824;2023-02-14T20:28:01;102930.0;;;6.1;77.5
60719;BME280;46567;51.660;5.824;2023-02-14T20:33:01;102930.0;;;6.1;78.0
60719;BME280;46567;51.660;5.824;2023-02-14T20:38:01;102930.0;;;6.0;78.5
60719;BME280;46567;51.660;5.824;2023-02-14T20:43:01;102940.0;;;6.0;78.5
60719;BME280;46567;51.660;5.824;2023-02-14T20:48:01;102940.0;;;5.9;79.0
60719;BME280;46567;51.660;5.824;2023-02-14T20:53:01;102930.0;;;5.8;79.0
60719;BME280;46567;51.660;5.824;2023-02-14T20:58:01;102930.0;;;5.7;79.0
60719;BME280;46567;51.660;5.824;2023-02-14T21:03:01;102920.0;;;5.6;79.5
60719;BME280;46567;51.660;5.824;2023-02-14T21:08:01;102920.0;;;5.6;79.5
60719;BME280;46567;51.660;5.824;2023-02-14T21:13:01;102900.0;;;5.5;79.5
60719;BME280;46567;51.660;5.824;2023-02-14T21:18:01;102910.0;;;5.5;79.5
60719;BME280;46567;51.660;5.824;2023-02-14T21:23:01;102900.0;;;5.5;79.5
60719;BME280;46567;51.660;5.824;2023-02-14T21:28:01;102900.0;;;5.4;80.0
60719;BME280;46567;51.660;5.824;2023-02-14T21:33:01;102900.0;;;5.3;80.0
60719;BME280;46567;51.660;5.824;2023-02-14T21:38:01;102890.0;;;5.2;80.0
60719;BME280;46567;51.660;5.824;2023-02-14T21:43:01;102890.0;;;5.1;80.5
60719;BME280;46567;51.660;5.824;2023-02-14T21:48:01;102890.0;;;5.1;80.5
60719;BME280;46567;51.660;5.824;2023-02-14T21:53:01;102890.0;;;5.0;80.0
60719;BME280;46567;51.660;5.824;2023-02-14T21:58:01;102890.0;;;4.9;80.0
60719;BME280;46567;51.660;5.824;2023-02-14T22:03:01;102890.0;;;4.8;80.0
60719;BME280;46567;51.660;5.824;2023-02-14T22:08:01;102880.0;;;4.7;80.0
60719;BME280;46567;51.660;5.824;2023-02-14T22:13:01;102880.0;;;4.6;80.0
60719;BME280;46567;51.660;5.824;2023-02-14T22:18:01;102890.0;;;4.5;80.5
60719;BME280;46567;51.660;5.824;2023-02-14T22:23:01;102880.0;;;4.5;80.5
60719;BME280;46567;51.660;5.824;2023-02-14T22:28:01;102870.0;;;4.4;80.5
60719;BME280;46567;51.660;5.824;2023-02-14T22:33:01;102880.0;;;4.4;80.5
60719;BME280;46567;51.660;5.824;2023-02-14T22:38:01;102880.0;;;4.3;80.5
60719;BME280;46567;51.660;5.824;2023-02-14T22:43:01;102880.0;;;4.2;80.5
60719;BME280;46567;51.660;5.824;2023-02-14T22:48:01;102880.0;;;4.2;80.5
60719;BME280;46567;51.660;5.824;2023-02-14T22:53:01;102880.0;;;4.1;80.5
60719;BME280;46567;51.660;5.824;2023-02-14T22:58:01;102870.0;;;4.1;81.0
60719;BME280;46567;51.660;5.824;2023-02-14T23:03:01;102870.0;;;4.0;81.0
60719;BME280;46567;51.660;5.824;2023-02-14T23:08:01;102870.0;;;3.9;81.0
60719;BME280;46567;51.660;5.824;2023-02-14T23:13:01;102860.0;;;3.9;81.5
60719;BME280;46567;51.660;5.824;2023-02-14T23:18:01;102860.0;;;3.8;81.5
60719;BME280;46567;51.660;5.824;2023-02-14T23:23:01;102870.0;;;3.8;82.0
60719;BME280;46567;51.660;5.824;2023-02-14T23:28:01;102870.0;;;3.7;82.0
60719;BME280;46567;51.660;5.824;2023-02-14T23:33:01;102860.0;;;3.7;82.0
60719;BME280;46567;51.660;5.824;2023-02-14T23:38:01;102860.0;;;3.7;82.0
60719;BME280;46567;51.660;5.824;2023-02-14T23:43:01;102860.0;;;3.7;82.5
60719;BME280;46567;51.660;5.824;2023-02-14T23:48:01;102870.0;;;3.7;82.5
60719;BME280;46567;51.660;5.824;2023-02-14T23:53:01;102860.0;;;3.7;82.0
60719;BME280;46567;51.660;5.824;2023-02-14T23:58:01;102850.0;;;3.6;82.0
